sensor_id;sensor_type;location;lat;lon;timestamp;pressure;altitude;pressure_sealevel;temperature;humidity
61537;BME280;48695;53.480;-6.300;2023-04-07T00:00:58;101477.19;;;11.70;49.51
61537;BME280;48695;53.480;-6.300;2023-04-07T00:03:23;101477.31;;;11.62;49.33
61537;BME280;48695;53.480;-6.300;2023-04-07T00:05:49;101481.78;;;11.54;49.36
61537;BME280;48695;53.480;-6.300;2023-04-07T00:08:14;101488.84;;;11.48;49.32
61537;BME280;48695;53.480;-6.300;2023-04-07T00:10:40;101486.38;;;11.37;49.90
61537;BME280;48695;53.480;-6.300;2023-04-07T00:13:06;101484.69;;;11.33;49.84
61537;BME280;48695;53.480;-6.300;2023-04-07T00:15:31;101472.66;;;11.20;50.56
61537;BME280;48695;53.480;-6.300;2023-04-07T00:17:57;101488.31;;;11.23;50.62
61537;BME280;48695;53.480;-6.300;2023-04-07T00:20:22;101477.94;;;11.16;50.74
61537;BME280;48695;53.480;-6.300;2023-04-07T00:22:48;101479.69;;;11.14;50.60
61537;BME280;48695;53.480;-6.300;2023-04-07T00:25:14;101484.09;;;11.09;50.80
61537;BME280;48695;53.480;-6.300;2023-04-07T00:27:39;101481.56;;;11.06;50.72
61537;BME280;48695;53.480;-6.300;2023-04-07T00:30:05;101486.81;;;11.03;50.94
61537;BME280;48695;53.480;-6.300;2023-04-07T00:32:31;101486.88;;;11.00;50.77
61537;BME280;48695;53.480;-6.300;2023-04-07T00:34:56;101487.75;;;10.98;51.17
61537;BME280;48695;53.480;-6.300;2023-04-07T00:37:22;101481.69;;;10.94;50.78
61537;BME280;48695;53.480;-6.300;2023-04-07T00:39:49;101474.88;;;10.82;51.28
61537;BME280;48695;53.480;-6.300;2023-04-07T00:42:16;101467.97;;;10.77;50.90
61537;BME280;48695;53.480;-6.300;2023-04-07T00:44:41;101491.38;;;10.84;50.86
61537;BME280;48695;53.480;-6.300;2023-04-07T00:47:07;101469.66;;;10.81;51.33
61537;BME280;48695;53.480;-6.300;2023-04-07T00:49:32;101479.31;;;10.76;51.21
61537;BME280;48695;53.480;-6.300;2023-04-07T00:51:58;101478.44;;;10.74;51.30
61537;BME280;48695;53.480;-6.300;2023-04-07T00:54:23;101481.09;;;10.69;51.29
61537;BME280;48695;53.480;-6.300;2023-04-07T00:56:49;101481.16;;;10.64;51.52
61537;BME280;48695;53.480;-6.300;2023-04-07T00:59:15;101487.31;;;10.60;51.84
61537;BME280;48695;53.480;-6.300;2023-04-07T01:04:48;101479.56;;;10.51;51.60
61537;BME280;48695;53.480;-6.300;2023-04-07T01:07:26;101480.44;;;10.47;51.52
61537;BME280;48695;53.480;-6.300;2023-04-07T01:10:04;101482.25;;;10.42;50.68
61537;BME280;48695;53.480;-6.300;2023-04-07T01:15:15;101471.00;;;10.35;51.98
61537;BME280;48695;53.480;-6.300;2023-04-07T01:17:48;101473.66;;;10.31;51.86
61537;BME280;48695;53.480;-6.300;2023-04-07T01:20:20;101478.88;;;10.28;52.08
61537;BME280;48695;53.480;-6.300;2023-04-07T01:22:53;101473.72;;;10.25;51.94
61537;BME280;48695;53.480;-6.300;2023-04-07T01:28:38;101472.00;;;10.18;50.92
61537;BME280;48695;53.480;-6.300;2023-04-07T01:31:07;101480.72;;;10.13;52.23
61537;BME280;48695;53.480;-6.300;2023-04-07T01:33:33;101471.22;;;10.09;50.52
61537;BME280;48695;53.480;-6.300;2023-04-07T01:35:59;101481.66;;;10.06;52.80
61537;BME280;48695;53.480;-6.300;2023-04-07T01:38:26;101476.44;;;10.03;52.48
61537;BME280;48695;53.480;-6.300;2023-04-07T01:40:53;101466.06;;;9.99;52.64
61537;BME280;48695;53.480;-6.300;2023-04-07T01:43:20;101480.88;;;9.95;52.80
61537;BME280;48695;53.480;-6.300;2023-04-07T01:45:46;101472.19;;;9.93;52.62
61537;BME280;48695;53.480;-6.300;2023-04-07T01:48:12;101472.22;;;9.90;53.20
61537;BME280;48695;53.480;-6.300;2023-04-07T01:50:40;101462.72;;;9.84;52.94
61537;BME280;48695;53.480;-6.300;2023-04-07T01:53:07;101451.47;;;9.72;53.20
61537;BME280;48695;53.480;-6.300;2023-04-07T01:55:33;101467.94;;;9.81;53.53
61537;BME280;48695;53.480;-6.300;2023-04-07T01:58:03;101471.44;;;9.77;52.72
61537;BME280;48695;53.480;-6.300;2023-04-07T02:00:29;101471.47;;;9.74;53.39
61537;BME280;48695;53.480;-6.300;2023-04-07T02:02:57;101468.84;;;9.73;53.37
61537;BME280;48695;53.480;-6.300;2023-04-07T02:05:24;101467.13;;;9.72;53.24
61537;BME280;48695;53.480;-6.300;2023-04-07T02:07:55;101468.03;;;9.69;53.46
61537;BME280;48695;53.480;-6.300;2023-04-07T02:10:23;101463.69;;;9.67;53.19
61537;BME280;48695;53.480;-6.300;2023-04-07T02:12:51;101466.34;;;9.64;53.67
61537;BME280;48695;53.480;-6.300;2023-04-07T02:15:18;101468.06;;;9.61;53.70
61537;BME280;48695;53.480;-6.300;2023-04-07T02:17:48;101464.63;;;9.59;53.16
61537;BME280;48695;53.480;-6.300;2023-04-07T02:20:15;101467.22;;;9.56;53.26
61537;BME280;48695;53.480;-6.300;2023-04-07T02:22:41;101466.38;;;9.53;53.04
61537;BME280;48695;53.480;-6.300;2023-04-07T02:25:29;101469.00;;;9.51;52.24
61537;BME280;48695;53.480;-6.300;2023-04-07T02:27:56;101466.41;;;9.47;52.88
61537;BME280;48695;53.480;-6.300;2023-04-07T02:30:22;101466.47;;;9.41;53.29
61537;BME280;48695;53.480;-6.300;2023-04-07T02:32:47;101470.81;;;9.40;52.79
61537;BME280;48695;53.480;-6.300;2023-04-07T02:35:14;101456.13;;;9.28;53.29
61537;BME280;48695;53.480;-6.300;2023-04-07T02:37:40;101465.63;;;9.34;51.41
61537;BME280;48695;53.480;-6.300;2023-04-07T02:40:07;101465.63;;;9.31;53.07
61537;BME280;48695;53.480;-6.300;2023-04-07T02:42:32;101463.06;;;9.25;52.86
61537;BME280;48695;53.480;-6.300;2023-04-07T02:44:58;101472.66;;;9.23;53.13
61537;BME280;48695;53.480;-6.300;2023-04-07T02:47:24;101475.28;;;9.18;53.72
61537;BME280;48695;53.480;-6.300;2023-04-07T02:49:49;101467.44;;;9.17;53.63
61537;BME280;48695;53.480;-6.300;2023-04-07T02:52:15;101464.00;;;9.13;53.63
61537;BME280;48695;53.480;-6.300;2023-04-07T02:54:41;101467.47;;;9.10;53.55
61537;BME280;48695;53.480;-6.300;2023-04-07T02:57:06;101470.97;;;9.06;53.69
61537;BME280;48695;53.480;-6.300;2023-04-07T02:59:32;101474.44;;;9.05;53.50
61537;BME280;48695;53.480;-6.300;2023-04-07T03:01:57;101470.13;;;9.03;53.58
61537;BME280;48695;53.480;-6.300;2023-04-07T03:04:23;101470.13;;;9.01;53.97
61537;BME280;48695;53.480;-6.300;2023-04-07T03:06:48;101442.41;;;8.83;53.76
61537;BME280;48695;53.480;-6.300;2023-04-07T03:09:14;101462.31;;;8.95;53.61
61537;BME280;48695;53.480;-6.300;2023-04-07T03:11:39;101466.69;;;8.93;54.02
61537;BME280;48695;53.480;-6.300;2023-04-07T03:14:05;101457.16;;;8.89;54.16
61537;BME280;48695;53.480;-6.300;2023-04-07T03:16:31;101464.09;;;8.90;54.15
61537;BME280;48695;53.480;-6.300;2023-04-07T03:18:56;101458.91;;;8.87;54.04
61537;BME280;48695;53.480;-6.300;2023-04-07T03:21:22;101458.91;;;8.84;54.48
61537;BME280;48695;53.480;-6.300;2023-04-07T03:23:47;101460.66;;;8.82;54.40
61537;BME280;48695;53.480;-6.300;2023-04-07T03:26:13;101464.09;;;8.81;54.47
61537;BME280;48695;53.480;-6.300;2023-04-07T03:28:38;101460.66;;;8.79;54.37
61537;BME280;48695;53.480;-6.300;2023-04-07T03:31:03;101467.63;;;8.77;54.58
61537;BME280;48695;53.480;-6.300;2023-04-07T03:33:29;101465.88;;;8.74;54.24
61537;BME280;48695;53.480;-6.300;2023-04-07T03:35:54;101448.56;;;8.60;54.38
61537;BME280;48695;53.480;-6.300;2023-04-07T03:38:20;101448.56;;;8.60;54.81
61537;BME280;48695;53.480;-6.300;2023-04-07T03:40:45;101465.88;;;8.67;54.55
61537;BME280;48695;53.480;-6.300;2023-04-07T03:43:11;101458.09;;;8.61;54.57
61537;BME280;48695;53.480;-6.300;2023-04-07T03:45:40;101468.53;;;8.62;54.88
61537;BME280;48695;53.480;-6.300;2023-04-07T03:48:05;101465.91;;;8.61;54.85
61537;BME280;48695;53.480;-6.300;2023-04-07T03:50:34;101463.31;;;8.57;55.03
61537;BME280;48695;53.480;-6.300;2023-04-07T03:53:00;101465.91;;;8.54;54.90
61537;BME280;48695;53.480;-6.300;2023-04-07T03:55:26;101467.69;;;8.52;55.16
61537;BME280;48695;53.480;-6.300;2023-04-07T03:57:51;101465.91;;;8.51;55.09
61537;BME280;48695;53.480;-6.300;2023-04-07T04:00:17;101464.22;;;8.47;55.07
61537;BME280;48695;53.480;-6.300;2023-04-07T04:02:42;101455.53;;;8.45;55.16
61537;BME280;48695;53.480;-6.300;2023-04-07T04:05:08;101462.47;;;8.43;55.37
61537;BME280;48695;53.480;-6.300;2023-04-07T04:07:33;101459.88;;;8.42;55.09
61537;BME280;48695;53.480;-6.300;2023-04-07T04:10:00;101459.88;;;8.39;55.21
61537;BME280;48695;53.480;-6.300;2023-04-07T04:12:25;101458.13;;;8.36;55.25
61537;BME280;48695;53.480;-6.300;2023-04-07T04:14:51;101459.84;;;8.36;55.20
61537;BME280;48695;53.480;-6.300;2023-04-07T04:17:17;101466.78;;;8.35;55.33
61537;BME280;48695;53.480;-6.300;2023-04-07T04:19:42;101464.19;;;8.32;55.30
61537;BME280;48695;53.480;-6.300;2023-04-07T04:22:07;101459.84;;;8.29;55.41
61537;BME280;48695;53.480;-6.300;2023-04-07T04:24:36;101464.19;;;8.29;55.79
61537;BME280;48695;53.480;-6.300;2023-04-07T04:27:01;101439.06;;;8.13;55.69
61537;BME280;48695;53.480;-6.300;2023-04-07T04:29:27;101466.78;;;8.26;55.41
61537;BME280;48695;53.480;-6.300;2023-04-07T04:31:52;101464.22;;;8.23;55.50
61537;BME280;48695;53.480;-6.300;2023-04-07T04:34:17;101457.28;;;8.22;55.80
61537;BME280;48695;53.480;-6.300;2023-04-07T04:36:43;101461.59;;;8.18;55.56
61537;BME280;48695;53.480;-6.300;2023-04-07T04:39:08;101443.41;;;8.07;55.49
61537;BME280;48695;53.480;-6.300;2023-04-07T04:41:34;101452.94;;;8.13;55.95
61537;BME280;48695;53.480;-6.300;2023-04-07T04:43:59;101457.28;;;8.11;55.82
61537;BME280;48695;53.480;-6.300;2023-04-07T04:46:25;101462.47;;;8.13;56.01
61537;BME280;48695;53.480;-6.300;2023-04-07T04:48:50;101464.19;;;8.11;56.13
61537;BME280;48695;53.480;-6.300;2023-04-07T04:51:17;101463.34;;;8.09;55.78
61537;BME280;48695;53.480;-6.300;2023-04-07T04:53:42;101460.75;;;8.07;55.91
61537;BME280;48695;53.480;-6.300;2023-04-07T04:56:08;101455.53;;;8.05;56.03
61537;BME280;48695;53.480;-6.300;2023-04-07T04:58:34;101462.47;;;8.03;56.08
61537;BME280;48695;53.480;-6.300;2023-04-07T05:00:59;101460.75;;;8.02;56.16
61537;BME280;48695;53.480;-6.300;2023-04-07T05:03:27;101457.25;;;8.00;55.88
61537;BME280;48695;53.480;-6.300;2023-04-07T05:05:52;101461.59;;;7.98;56.23
61537;BME280;48695;53.480;-6.300;2023-04-07T05:08:18;101465.97;;;7.96;55.79
61537;BME280;48695;53.480;-6.300;2023-04-07T05:10:43;101452.94;;;7.90;56.16
61537;BME280;48695;53.480;-6.300;2023-04-07T05:13:08;101455.53;;;7.90;56.18
61537;BME280;48695;53.480;-6.300;2023-04-07T05:15:34;101435.59;;;7.74;56.03
61537;BME280;48695;53.480;-6.300;2023-04-07T05:17:59;101461.63;;;7.86;55.83
61537;BME280;48695;53.480;-6.300;2023-04-07T05:20:25;101472.84;;;7.85;56.18
61537;BME280;48695;53.480;-6.300;2023-04-07T05:22:50;101462.47;;;7.82;56.42
61537;BME280;48695;53.480;-6.300;2023-04-07T05:25:16;101467.66;;;7.79;56.33
61537;BME280;48695;53.480;-6.300;2023-04-07T05:27:41;101470.25;;;7.77;56.57
61537;BME280;48695;53.480;-6.300;2023-04-07T05:30:07;101472.88;;;7.76;56.31
61537;BME280;48695;53.480;-6.300;2023-04-07T05:32:32;101467.66;;;7.73;56.52
61537;BME280;48695;53.480;-6.300;2023-04-07T05:34:58;101471.13;;;7.72;56.70
61537;BME280;48695;53.480;-6.300;2023-04-07T05:37:23;101480.63;;;7.70;56.70
61537;BME280;48695;53.480;-6.300;2023-04-07T05:39:49;101480.63;;;7.65;56.60
61537;BME280;48695;53.480;-6.300;2023-04-07T05:42:14;101481.53;;;7.66;56.71
61537;BME280;48695;53.480;-6.300;2023-04-07T05:44:40;101481.50;;;7.63;56.39
61537;BME280;48695;53.480;-6.300;2023-04-07T05:47:05;101483.25;;;7.62;56.34
61537;BME280;48695;53.480;-6.300;2023-04-07T05:49:34;101481.50;;;7.60;56.45
61537;BME280;48695;53.480;-6.300;2023-04-07T05:51:59;101458.97;;;7.46;56.41
61537;BME280;48695;53.480;-6.300;2023-04-07T05:54:25;101478.91;;;7.57;57.01
61537;BME280;48695;53.480;-6.300;2023-04-07T05:56:50;101490.16;;;7.56;56.66
61537;BME280;48695;53.480;-6.300;2023-04-07T05:59:16;101479.75;;;7.52;57.08
61537;BME280;48695;53.480;-6.300;2023-04-07T06:01:41;101482.34;;;7.51;56.93
61537;BME280;48695;53.480;-6.300;2023-04-07T06:04:07;101491.03;;;7.51;57.26
61537;BME280;48695;53.480;-6.300;2023-04-07T06:06:32;101485.81;;;7.51;57.10
61537;BME280;48695;53.480;-6.300;2023-04-07T06:08:57;101484.09;;;7.50;56.92
61537;BME280;48695;53.480;-6.300;2023-04-07T06:11:24;101490.13;;;7.49;56.97
61537;BME280;48695;53.480;-6.300;2023-04-07T06:13:50;101470.16;;;7.35;57.28
61537;BME280;48695;53.480;-6.300;2023-04-07T06:16:15;101429.41;;;7.11;57.35
61537;BME280;48695;53.480;-6.300;2023-04-07T06:18:41;101486.69;;;7.46;57.54
61537;BME280;48695;53.480;-6.300;2023-04-07T06:21:06;101484.91;;;7.43;57.19
61537;BME280;48695;53.480;-6.300;2023-04-07T06:23:32;101490.13;;;7.49;57.70
61537;BME280;48695;53.480;-6.300;2023-04-07T06:25:57;101501.38;;;7.50;57.61
61537;BME280;48695;53.480;-6.300;2023-04-07T06:28:22;101495.31;;;7.49;57.76
61537;BME280;48695;53.480;-6.300;2023-04-07T06:30:48;101491.88;;;7.52;57.95
61537;BME280;48695;53.480;-6.300;2023-04-07T06:33:13;101492.75;;;7.54;57.81
61537;BME280;48695;53.480;-6.300;2023-04-07T06:35:39;101497.97;;;7.57;57.88
61537;BME280;48695;53.480;-6.300;2023-04-07T06:38:05;101498.81;;;7.58;57.66
61537;BME280;48695;53.480;-6.300;2023-04-07T06:40:31;101497.09;;;7.60;57.82
61537;BME280;48695;53.480;-6.300;2023-04-07T06:42:57;101493.63;;;7.58;57.76
61537;BME280;48695;53.480;-6.300;2023-04-07T06:45:22;101498.84;;;7.64;58.07
61537;BME280;48695;53.480;-6.300;2023-04-07T06:47:48;101504.06;;;7.67;57.86
61537;BME280;48695;53.480;-6.300;2023-04-07T06:50:13;101483.22;;;7.56;58.45
61537;BME280;48695;53.480;-6.300;2023-04-07T06:52:39;101498.00;;;7.72;58.31
61537;BME280;48695;53.480;-6.300;2023-04-07T06:55:05;101499.72;;;7.73;57.92
61537;BME280;48695;53.480;-6.300;2023-04-07T06:57:32;101485.00;;;7.72;58.08
61537;BME280;48695;53.480;-6.300;2023-04-07T06:59:57;101505.78;;;7.80;58.26
61537;BME280;48695;53.480;-6.300;2023-04-07T07:02:23;101491.06;;;7.77;57.95
61537;BME280;48695;53.480;-6.300;2023-04-07T07:04:48;101493.66;;;7.85;58.36
61537;BME280;48695;53.480;-6.300;2023-04-07T07:07:14;101504.06;;;7.88;58.30
61537;BME280;48695;53.480;-6.300;2023-04-07T07:09:40;101497.16;;;7.93;58.35
61537;BME280;48695;53.480;-6.300;2023-04-07T07:12:05;101496.28;;;7.97;58.37
61537;BME280;48695;53.480;-6.300;2023-04-07T07:14:31;101504.06;;;8.00;58.34
61537;BME280;48695;53.480;-6.300;2023-04-07T07:16:56;101501.50;;;8.02;58.08
61537;BME280;48695;53.480;-6.300;2023-04-07T07:19:22;101514.50;;;8.08;58.02
61537;BME280;48695;53.480;-6.300;2023-04-07T07:21:47;101509.28;;;8.10;58.39
61537;BME280;48695;53.480;-6.300;2023-04-07T07:24:13;101509.31;;;8.11;58.20
61537;BME280;48695;53.480;-6.300;2023-04-07T07:26:38;101512.78;;;8.18;58.29
61537;BME280;48695;53.480;-6.300;2023-04-07T07:29:05;101511.03;;;8.23;58.30
61537;BME280;48695;53.480;-6.300;2023-04-07T07:31:30;101512.75;;;8.25;58.58
61537;BME280;48695;53.480;-6.300;2023-04-07T07:33:56;101511.91;;;8.29;58.42
61537;BME280;48695;53.480;-6.300;2023-04-07T07:36:21;101511.03;;;8.35;58.07
61537;BME280;48695;53.480;-6.300;2023-04-07T07:38:49;101507.59;;;8.38;58.32
61537;BME280;48695;53.480;-6.300;2023-04-07T07:41:15;101508.44;;;8.41;57.99
61537;BME280;48695;53.480;-6.300;2023-04-07T07:43:41;101517.13;;;8.52;58.26
61537;BME280;48695;53.480;-6.300;2023-04-07T07:46:07;101498.06;;;8.47;57.79
61537;BME280;48695;53.480;-6.300;2023-04-07T07:48:33;101515.38;;;8.62;58.19
61537;BME280;48695;53.480;-6.300;2023-04-07T07:50:58;101521.44;;;8.69;57.70
61537;BME280;48695;53.480;-6.300;2023-04-07T07:53:24;101521.44;;;8.78;57.99
61537;BME280;48695;53.480;-6.300;2023-04-07T07:55:49;101516.22;;;8.87;57.40
61537;BME280;48695;53.480;-6.300;2023-04-07T07:58:15;101514.44;;;8.95;57.57
61537;BME280;48695;53.480;-6.300;2023-04-07T08:00:40;101505.75;;;9.02;57.93
61537;BME280;48695;53.480;-6.300;2023-04-07T08:03:06;101510.88;;;9.12;57.78
61537;BME280;48695;53.480;-6.300;2023-04-07T08:05:31;101513.44;;;9.22;57.72
61537;BME280;48695;53.480;-6.300;2023-04-07T08:07:56;101516.88;;;9.32;57.65
61537;BME280;48695;53.480;-6.300;2023-04-07T08:10:22;101502.09;;;9.43;57.71
61537;BME280;48695;53.480;-6.300;2023-04-07T08:12:49;101501.16;;;9.55;57.86
61537;BME280;48695;53.480;-6.300;2023-04-07T08:15:15;101492.38;;;9.65;58.08
61537;BME280;48695;53.480;-6.300;2023-04-07T08:17:40;101488.00;;;9.72;59.89
61537;BME280;48695;53.480;-6.300;2023-04-07T08:20:06;101487.00;;;9.88;60.68
61537;BME280;48695;53.480;-6.300;2023-04-07T08:22:32;101496.44;;;10.07;60.68
61537;BME280;48695;53.480;-6.300;2023-04-07T08:24:58;101499.81;;;10.22;61.04
61537;BME280;48695;53.480;-6.300;2023-04-07T08:27:23;101493.63;;;10.33;60.97
61537;BME280;48695;53.480;-6.300;2023-04-07T08:29:58;101496.94;;;10.52;59.99
61537;BME280;48695;53.480;-6.300;2023-04-07T08:32:24;101495.97;;;10.62;61.30
61537;BME280;48695;53.480;-6.300;2023-04-07T08:34:50;101483.75;;;10.66;61.85
61537;BME280;48695;53.480;-6.300;2023-04-07T08:37:15;101499.97;;;10.94;61.31
61537;BME280;48695;53.480;-6.300;2023-04-07T08:39:41;101504.97;;;11.15;62.05
61537;BME280;48695;53.480;-6.300;2023-04-07T08:42:07;101494.25;;;11.37;61.76
61537;BME280;48695;53.480;-6.300;2023-04-07T08:44:35;101491.31;;;11.58;61.11
61537;BME280;48695;53.480;-6.300;2023-04-07T08:47:04;101494.44;;;11.85;61.48
61537;BME280;48695;53.480;-6.300;2023-04-07T08:49:32;101497.63;;;12.07;61.06
61537;BME280;48695;53.480;-6.300;2023-04-07T08:52:05;101500.56;;;12.38;60.42
61537;BME280;48695;53.480;-6.300;2023-04-07T08:54:31;101490.66;;;12.55;60.69
61537;BME280;48695;53.480;-6.300;2023-04-07T08:56:58;101504.00;;;12.89;60.30
61537;BME280;48695;53.480;-6.300;2023-04-07T08:59:25;101498.13;;;13.20;60.00
61537;BME280;48695;53.480;-6.300;2023-04-07T09:01:53;101494.97;;;13.46;59.59
61537;BME280;48695;53.480;-6.300;2023-04-07T09:04:19;101500.47;;;13.74;59.34
61537;BME280;48695;53.480;-6.300;2023-04-07T09:06:44;101496.38;;;13.99;58.85
61537;BME280;48695;53.480;-6.300;2023-04-07T09:09:10;101496.72;;;14.21;58.53
61537;BME280;48695;53.480;-6.300;2023-04-07T09:11:37;101496.16;;;14.43;58.10
61537;BME280;48695;53.480;-6.300;2023-04-07T09:14:04;101497.38;;;14.65;57.87
61537;BME280;48695;53.480;-6.300;2023-04-07T09:16:30;101494.94;;;14.89;57.79
61537;BME280;48695;53.480;-6.300;2023-04-07T09:18:55;101489.91;;;15.12;57.28
61537;BME280;48695;53.480;-6.300;2023-04-07T09:21:21;101476.19;;;15.30;57.09
61537;BME280;48695;53.480;-6.300;2023-04-07T09:23:47;101482.28;;;15.62;56.08
61537;BME280;48695;53.480;-6.300;2023-04-07T09:26:26;101495.00;;;16.04;55.52
61537;BME280;48695;53.480;-6.300;2023-04-07T09:28:59;101496.38;;;16.16;54.58
61537;BME280;48695;53.480;-6.300;2023-04-07T09:31:48;101490.19;;;16.43;54.55
61537;BME280;48695;53.480;-6.300;2023-04-07T09:34:30;101488.63;;;16.63;53.96
61537;BME280;48695;53.480;-6.300;2023-04-07T09:36:56;101503.88;;;16.79;52.82
61537;BME280;48695;53.480;-6.300;2023-04-07T09:39:22;101492.53;;;17.01;52.34
61537;BME280;48695;53.480;-6.300;2023-04-07T09:41:47;101472.03;;;17.09;51.58
61537;BME280;48695;53.480;-6.300;2023-04-07T09:44:13;101491.84;;;17.43;51.11
61537;BME280;48695;53.480;-6.300;2023-04-07T09:46:53;101488.84;;;17.75;51.88
61537;BME280;48695;53.480;-6.300;2023-04-07T09:49:20;101487.47;;;17.87;49.79
61537;BME280;48695;53.480;-6.300;2023-04-07T09:52:11;101495.81;;;18.20;52.11
61537;BME280;48695;53.480;-6.300;2023-04-07T09:54:38;101488.56;;;18.25;49.02
61537;BME280;48695;53.480;-6.300;2023-04-07T09:57:10;101497.66;;;18.38;49.38
61537;BME280;48695;53.480;-6.300;2023-04-07T09:59:38;101477.78;;;18.30;48.74
61537;BME280;48695;53.480;-6.300;2023-04-07T10:02:04;101486.44;;;18.33;48.15
61537;BME280;48695;53.480;-6.300;2023-04-07T10:04:30;101485.25;;;18.20;47.85
61537;BME280;48695;53.480;-6.300;2023-04-07T10:06:57;101491.25;;;18.24;47.99
61537;BME280;48695;53.480;-6.300;2023-04-07T10:09:25;101495.81;;;18.20;48.08
61537;BME280;48695;53.480;-6.300;2023-04-07T10:11:52;101474.19;;;18.10;47.13
61537;BME280;48695;53.480;-6.300;2023-04-07T10:14:19;101483.13;;;18.28;47.46
61537;BME280;48695;53.480;-6.300;2023-04-07T10:16:46;101492.47;;;18.37;47.32
61537;BME280;48695;53.480;-6.300;2023-04-07T10:19:12;101490.13;;;18.50;47.29
61537;BME280;48695;53.480;-6.300;2023-04-07T10:21:40;101485.09;;;18.64;47.61
61537;BME280;48695;53.480;-6.300;2023-04-07T10:27:05;101491.97;;;19.09;45.92
61537;BME280;48695;53.480;-6.300;2023-04-07T10:29:41;101484.69;;;19.33;46.33
61537;BME280;48695;53.480;-6.300;2023-04-07T10:32:07;101490.41;;;19.42;44.68
61537;BME280;48695;53.480;-6.300;2023-04-07T10:34:54;101488.25;;;19.69;47.61
61537;BME280;48695;53.480;-6.300;2023-04-07T10:37:22;101481.78;;;19.75;44.70
61537;BME280;48695;53.480;-6.300;2023-04-07T10:39:50;101480.19;;;19.90;44.39
61537;BME280;48695;53.480;-6.300;2023-04-07T10:45:06;101492.41;;;20.29;43.90
61537;BME280;48695;53.480;-6.300;2023-04-07T10:48:19;101487.31;;;20.41;43.42
61537;BME280;48695;53.480;-6.300;2023-04-07T10:50:20;101482.03;;;20.59;43.54
61537;BME280;48695;53.480;-6.300;2023-04-07T10:52:48;101487.31;;;20.76;43.13
61537;BME280;48695;53.480;-6.300;2023-04-07T11:00:38;101473.59;;;21.34;42.24
61537;BME280;48695;53.480;-6.300;2023-04-07T11:03:11;101470.69;;;21.55;43.23
61537;BME280;48695;53.480;-6.300;2023-04-07T11:05:41;101474.53;;;21.65;41.56
61537;BME280;48695;53.480;-6.300;2023-04-07T11:08:07;101467.66;;;21.76;40.00
61537;BME280;48695;53.480;-6.300;2023-04-07T11:10:33;101474.06;;;21.88;40.26
61537;BME280;48695;53.480;-6.300;2023-04-07T11:13:04;101469.75;;;22.01;39.90
61537;BME280;48695;53.480;-6.300;2023-04-07T11:15:31;101451.88;;;22.03;39.84
61537;BME280;48695;53.480;-6.300;2023-04-07T11:18:16;101420.66;;;22.07;42.39
61537;BME280;48695;53.480;-6.300;2023-04-07T11:20:53;101479.41;;;22.48;41.43
61537;BME280;48695;53.480;-6.300;2023-04-07T11:23:22;101477.44;;;22.66;40.85
61537;BME280;48695;53.480;-6.300;2023-04-07T11:25:50;101468.78;;;22.77;38.69
61537;BME280;48695;53.480;-6.300;2023-04-07T11:28:16;101477.56;;;23.08;41.94
61537;BME280;48695;53.480;-6.300;2023-04-07T11:30:49;101475.47;;;23.13;39.52
61537;BME280;48695;53.480;-6.300;2023-04-07T11:33:17;101476.59;;;23.23;38.41
61537;BME280;48695;53.480;-6.300;2023-04-07T11:35:49;101462.84;;;23.43;38.08
61537;BME280;48695;53.480;-6.300;2023-04-07T11:38:17;101462.63;;;23.46;36.81
61537;BME280;48695;53.480;-6.300;2023-04-07T11:40:42;101468.91;;;23.60;36.82
61537;BME280;48695;53.480;-6.300;2023-04-07T11:43:15;101470.41;;;23.78;37.87
61537;BME280;48695;53.480;-6.300;2023-04-07T11:45:42;101471.16;;;23.80;36.38
61537;BME280;48695;53.480;-6.300;2023-04-07T11:48:28;101464.91;;;23.94;39.22
61537;BME280;48695;53.480;-6.300;2023-04-07T11:50:54;101462.69;;;24.00;37.57
61537;BME280;48695;53.480;-6.300;2023-04-07T11:53:33;101468.00;;;24.40;38.67
61537;BME280;48695;53.480;-6.300;2023-04-07T11:56:07;101450.41;;;24.50;37.97
61537;BME280;48695;53.480;-6.300;2023-04-07T11:58:52;101468.66;;;24.82;36.70
61537;BME280;48695;53.480;-6.300;2023-04-07T12:01:19;101470.69;;;24.91;35.12
61537;BME280;48695;53.480;-6.300;2023-04-07T12:04:02;101460.72;;;25.19;37.45
61537;BME280;48695;53.480;-6.300;2023-04-07T12:06:29;101467.88;;;25.31;34.58
61537;BME280;48695;53.480;-6.300;2023-04-07T12:08:57;101448.16;;;25.45;34.06
61537;BME280;48695;53.480;-6.300;2023-04-07T12:11:23;101464.94;;;25.71;33.76
61537;BME280;48695;53.480;-6.300;2023-04-07T12:13:49;101456.31;;;25.91;32.86
61537;BME280;48695;53.480;-6.300;2023-04-07T12:16:14;101445.59;;;25.91;32.91
61537;BME280;48695;53.480;-6.300;2023-04-07T12:18:40;101457.53;;;25.98;32.64
61537;BME280;48695;53.480;-6.300;2023-04-07T12:21:05;101464.69;;;25.86;31.78
61537;BME280;48695;53.480;-6.300;2023-04-07T12:23:31;101461.56;;;25.56;31.64
61537;BME280;48695;53.480;-6.300;2023-04-07T12:25:56;101461.47;;;25.21;32.55
61537;BME280;48695;53.480;-6.300;2023-04-07T12:28:22;101480.09;;;24.84;32.55
61537;BME280;48695;53.480;-6.300;2023-04-07T12:30:47;101468.13;;;24.51;32.45
61537;BME280;48695;53.480;-6.300;2023-04-07T12:33:13;101450.19;;;24.01;32.11
61537;BME280;48695;53.480;-6.300;2023-04-07T12:35:39;101460.44;;;23.67;32.81
61537;BME280;48695;53.480;-6.300;2023-04-07T12:38:04;101470.88;;;23.29;33.55
61537;BME280;48695;53.480;-6.300;2023-04-07T12:40:30;101448.34;;;22.77;34.93
61537;BME280;48695;53.480;-6.300;2023-04-07T12:42:55;101460.97;;;22.60;34.39
61537;BME280;48695;53.480;-6.300;2023-04-07T12:45:23;101476.91;;;22.31;34.72
61537;BME280;48695;53.480;-6.300;2023-04-07T12:47:48;101467.00;;;22.03;34.94
61537;BME280;48695;53.480;-6.300;2023-04-07T12:50:13;101460.88;;;21.71;34.62
61537;BME280;48695;53.480;-6.300;2023-04-07T12:52:40;101465.88;;;21.45;35.27
61537;BME280;48695;53.480;-6.300;2023-04-07T12:55:05;101461.19;;;21.17;35.71
61537;BME280;48695;53.480;-6.300;2023-04-07T12:57:31;101462.69;;;20.90;36.15
61537;BME280;48695;53.480;-6.300;2023-04-07T12:59:56;101459.53;;;20.66;37.00
61537;BME280;48695;53.480;-6.300;2023-04-07T13:02:22;101461.44;;;20.46;37.61
61537;BME280;48695;53.480;-6.300;2023-04-07T13:04:48;101462.38;;;20.28;37.91